createdAt,value
2022-12-22T00:02:00.200Z,5.50
2022-12-22T00:04:46.155Z,6.70
2022-12-22T00:07:31.762Z,6.33
2022-12-22T00:10:17.797Z,6.57
2022-12-22T00:13:04.920Z,6.40
2022-12-22T00:15:53.646Z,7.07
2022-12-22T00:18:39.313Z,5.40
2022-12-22T00:21:25.080Z,5.83
2022-12-22T00:24:10.523Z,5.37
2022-12-22T00:26:56.566Z,4.70
2022-12-22T00:29:43.778Z,4.90
2022-12-22T00:32:32.715Z,5.10
2022-12-22T00:35:18.912Z,5.60
2022-12-22T00:38:04.846Z,4.90
2022-12-22T00:40:50.710Z,4.40
2022-12-22T00:43:36.027Z,4.27
2022-12-22T00:46:23.467Z,4.07
2022-12-22T00:49:10.043Z,3.90
2022-12-22T00:51:55.870Z,3.67
2022-12-22T00:54:42.120Z,3.53
2022-12-22T00:57:34.148Z,4.67
2022-12-22T01:00:20.548Z,3.07
2022-12-22T01:03:07.812Z,3.47
2022-12-22T01:05:54.024Z,3.40
2022-12-22T01:08:39.494Z,2.90
2022-12-22T01:11:26.028Z,4.57
2022-12-22T01:14:11.783Z,2.87
2022-12-22T01:16:57.374Z,4.57
2022-12-22T01:19:44.452Z,3.00
2022-12-22T01:22:30.771Z,3.13
2022-12-22T01:25:16.264Z,3.47
2022-12-22T01:28:01.679Z,6.43
2022-12-22T01:30:47.278Z,4.13
2022-12-22T01:33:33.017Z,5.77
2022-12-22T01:36:20.229Z,10.20
2022-12-22T01:39:06.007Z,7.27
2022-12-22T01:41:51.733Z,6.43
2022-12-22T01:44:37.830Z,8.37
2022-12-22T01:47:59.941Z,5.33
2022-12-22T01:50:50.631Z,5.20
2022-12-22T01:53:41.946Z,4.43
2022-12-22T01:56:28.432Z,3.87
2022-12-22T01:59:17.632Z,3.33
2022-12-22T02:02:03.941Z,3.60
2022-12-22T02:04:53.798Z,3.93
2022-12-22T02:07:56.619Z,3.83
2022-12-22T02:11:00.452Z,3.70
2022-12-22T02:13:54.177Z,3.17
2022-12-22T02:16:49.254Z,3.20
2022-12-22T02:19:52.920Z,4.17
2022-12-22T02:22:46.692Z,3.37
2022-12-22T02:25:37.865Z,2.97
2022-12-22T02:28:25.501Z,3.70
2022-12-22T02:31:12.199Z,3.83
2022-12-22T02:33:58.146Z,3.53
2022-12-22T02:36:51.268Z,3.40
2022-12-22T02:39:44.302Z,4.30
2022-12-22T02:42:37.525Z,6.30
2022-12-22T02:45:34.184Z,7.20
2022-12-22T02:48:24.955Z,7.97
2022-12-22T02:51:14.338Z,8.00
2022-12-22T02:54:00.242Z,6.33
2022-12-22T02:56:46.419Z,7.53
2022-12-22T02:59:32.060Z,6.43
2022-12-22T03:02:19.583Z,6.00
2022-12-22T03:05:05.125Z,5.40
2022-12-22T03:07:50.657Z,4.90
2022-12-22T03:10:36.647Z,4.70
2022-12-22T03:13:22.108Z,4.33
2022-12-22T03:16:08.107Z,4.27
2022-12-22T03:18:54.939Z,3.70
2022-12-22T03:21:40.665Z,3.67
2022-12-22T03:24:26.774Z,3.63
2022-12-22T03:26:55.794Z,4.40
2022-12-22T03:29:24.225Z,3.40
2022-12-22T03:31:52.600Z,3.50
2022-12-22T03:34:22.411Z,4.00
2022-12-22T03:36:50.737Z,3.70
2022-12-22T03:39:19.108Z,3.80
2022-12-22T03:42:04.726Z,3.73
2022-12-22T03:44:50.451Z,4.47
2022-12-22T03:47:18.796Z,4.43
2022-12-22T03:49:48.588Z,3.80
2022-12-22T03:52:16.948Z,4.23
2022-12-22T03:54:45.251Z,4.07
2022-12-22T03:57:13.507Z,4.70
2022-12-22T03:59:42.028Z,4.10
2022-12-22T04:02:10.414Z,4.80
2022-12-22T04:04:38.813Z,5.47
2022-12-22T04:07:08.532Z,4.97
2022-12-22T04:09:56.815Z,4.93
2022-12-22T04:12:42.767Z,5.50
2022-12-22T04:15:11.874Z,5.20
2022-12-22T04:17:40.248Z,5.03
2022-12-22T04:20:09.751Z,4.23
2022-12-22T04:22:39.460Z,4.20
2022-12-22T04:25:08.905Z,5.10
2022-12-22T04:27:37.181Z,4.00
2022-12-22T04:30:06.540Z,4.60
2022-12-22T04:32:34.960Z,3.90
2022-12-22T04:35:03.312Z,3.80
2022-12-22T04:37:31.625Z,4.30
2022-12-22T04:40:01.790Z,3.87
2022-12-22T04:42:30.212Z,4.00
2022-12-22T04:44:58.543Z,5.10
2022-12-22T04:47:26.843Z,3.60
2022-12-22T04:49:55.861Z,4.07
2022-12-22T04:52:24.250Z,3.90
2022-12-22T04:54:52.611Z,4.07
2022-12-22T04:57:22.605Z,3.63
2022-12-22T04:59:50.912Z,3.97
2022-12-22T05:02:19.331Z,5.13
2022-12-22T05:04:47.653Z,3.83
2022-12-22T05:07:16.004Z,4.00
2022-12-22T05:09:44.412Z,3.43
2022-12-22T05:12:30.147Z,3.83
2022-12-22T05:14:59.905Z,3.60
2022-12-22T05:17:28.216Z,3.43
2022-12-22T05:19:56.491Z,3.40
2022-12-22T05:22:24.818Z,3.27
2022-12-22T05:24:53.093Z,3.37
2022-12-22T05:27:21.499Z,4.20
2022-12-22T05:29:49.835Z,3.27
2022-12-22T05:32:19.571Z,3.30
2022-12-22T05:34:47.885Z,5.63
2022-12-22T05:37:16.195Z,4.37
2022-12-22T05:39:44.539Z,4.40
2022-12-22T05:42:12.816Z,5.47
2022-12-22T05:44:41.088Z,4.23
2022-12-22T05:47:09.580Z,4.40
2022-12-22T05:49:39.690Z,3.93
2022-12-22T05:52:07.935Z,3.77
2022-12-22T05:54:36.298Z,3.70
2022-12-22T05:57:04.751Z,4.20
2022-12-22T05:59:33.027Z,3.70
2022-12-22T06:02:01.495Z,4.10
2022-12-22T06:04:30.073Z,5.23
2022-12-22T06:06:59.874Z,5.27
2022-12-22T06:09:28.141Z,6.00
2022-12-22T06:11:56.463Z,5.30
2022-12-22T06:14:24.855Z,6.53
2022-12-22T06:16:53.211Z,4.83
2022-12-22T06:19:21.586Z,4.80
2022-12-22T06:21:49.941Z,4.80
2022-12-22T06:24:19.673Z,4.43
2022-12-22T06:26:48.071Z,5.20
2022-12-22T06:29:16.444Z,5.30
2022-12-22T06:31:44.847Z,5.33
2022-12-22T06:34:13.642Z,5.40
2022-12-22T06:36:41.964Z,5.33
2022-12-22T06:39:10.279Z,5.37
2022-12-22T06:41:57.291Z,6.07
2022-12-22T06:44:25.700Z,6.40
2022-12-22T06:46:54.335Z,6.50
2022-12-22T06:49:23.228Z,6.17
2022-12-22T06:51:51.534Z,6.47
2022-12-22T06:54:25.905Z,5.77
2022-12-22T06:56:56.046Z,6.37
2022-12-22T06:59:24.316Z,5.97
2022-12-22T07:01:52.633Z,6.90
2022-12-22T07:04:21.676Z,6.57
2022-12-22T07:06:49.975Z,6.47
2022-12-22T07:09:18.271Z,6.33
2022-12-22T07:11:46.599Z,7.30
2022-12-22T07:14:16.457Z,8.73
2022-12-22T07:16:45.861Z,6.53
2022-12-22T07:19:14.242Z,6.20
2022-12-22T07:21:42.634Z,5.83
2022-12-22T07:24:11.171Z,5.87
2022-12-22T07:26:39.651Z,6.33
2022-12-22T07:29:07.960Z,6.97
2022-12-22T07:31:37.911Z,6.60
2022-12-22T07:34:06.443Z,6.70
2022-12-22T07:36:34.858Z,6.97
2022-12-22T07:39:03.268Z,6.60
2022-12-22T07:41:48.586Z,8.60
2022-12-22T07:44:16.883Z,9.17
2022-12-22T07:46:46.937Z,8.57
2022-12-22T07:49:32.533Z,7.10
2022-12-22T07:52:01.464Z,7.20
2022-12-22T07:54:30.313Z,7.70
2022-12-22T07:56:58.735Z,8.43
2022-12-22T07:59:27.114Z,9.37
2022-12-22T08:01:57.033Z,9.30
2022-12-22T08:04:25.579Z,9.93
2022-12-22T08:06:53.871Z,9.90
2022-12-22T08:09:23.123Z,9.90
2022-12-22T08:11:51.500Z,10.20
2022-12-22T08:14:19.763Z,8.93
2022-12-22T08:16:48.263Z,7.73
2022-12-22T08:19:17.949Z,6.40
2022-12-22T08:21:52.414Z,7.03
2022-12-22T08:24:21.671Z,7.40
2022-12-22T08:26:54.716Z,7.97
2022-12-22T08:29:26.725Z,8.20
2022-12-22T08:31:56.007Z,8.67
2022-12-22T08:34:25.876Z,9.20
2022-12-22T08:36:59.480Z,10.37
2022-12-22T08:39:29.815Z,11.07
2022-12-22T08:41:58.895Z,10.47
2022-12-22T08:44:29.122Z,10.37
2022-12-22T08:46:59.076Z,12.50
2022-12-22T08:49:29.271Z,14.00
2022-12-22T08:51:57.617Z,12.93
2022-12-22T08:54:25.861Z,14.00
2022-12-22T08:56:54.322Z,12.87
2022-12-22T08:59:22.575Z,11.67
2022-12-22T09:01:51.502Z,13.80
2022-12-22T09:04:21.905Z,12.17
2022-12-22T09:06:53.152Z,11.53
2022-12-22T09:09:22.082Z,12.30
2022-12-22T09:11:50.380Z,11.70
2022-12-22T09:14:18.984Z,10.60
2022-12-22T09:16:47.465Z,10.30
2022-12-22T09:19:15.851Z,9.37
2022-12-22T09:21:45.146Z,8.87
2022-12-22T09:24:16.427Z,8.07
2022-12-22T09:26:44.881Z,8.77
2022-12-22T09:29:15.602Z,9.20
2022-12-22T09:31:44.578Z,10.23
2022-12-22T09:34:17.586Z,10.67
2022-12-22T09:36:47.090Z,9.63
2022-12-22T09:39:17.110Z,8.90
2022-12-22T09:41:47.787Z,8.03
2022-12-22T09:44:22.582Z,8.30
2022-12-22T09:46:52.119Z,7.80
2022-12-22T09:49:21.025Z,8.23
2022-12-22T09:51:52.763Z,8.53
2022-12-22T09:54:23.714Z,8.43
2022-12-22T09:56:52.019Z,9.97
2022-12-22T09:59:21.998Z,10.13
2022-12-22T10:02:07.331Z,9.53
2022-12-22T10:04:57.499Z,9.33
2022-12-22T10:07:31.314Z,8.57
2022-12-22T10:10:07.261Z,9.27
2022-12-22T10:12:35.695Z,9.17
2022-12-22T10:15:04.206Z,8.87
2022-12-22T10:17:34.476Z,9.57
2022-12-22T10:20:22.426Z,9.63
2022-12-22T10:22:53.063Z,10.07
2022-12-22T10:25:52.510Z,9.57
2022-12-22T10:28:23.644Z,10.67
2022-12-22T10:31:09.978Z,10.07
2022-12-22T10:33:45.858Z,10.17
2022-12-22T10:36:16.071Z,10.50
2022-12-22T10:39:00.246Z,11.60
2022-12-22T10:41:32.477Z,11.13
2022-12-22T10:44:02.910Z,9.20
2022-12-22T10:46:35.425Z,8.60
2022-12-22T10:49:20.642Z,8.43
2022-12-22T10:51:51.845Z,7.10
2022-12-22T10:54:28.933Z,6.93
2022-12-22T10:57:26.553Z,6.73
2022-12-22T10:59:57.008Z,6.67
2022-12-22T11:02:33.180Z,6.47
2022-12-22T11:05:07.922Z,8.10
2022-12-22T11:07:38.255Z,7.50
2022-12-22T11:10:18.083Z,8.60
2022-12-22T11:13:00.428Z,7.73
2022-12-22T11:15:35.320Z,8.50
2022-12-22T11:18:11.871Z,13.30
2022-12-22T11:20:52.468Z,12.13
2022-12-22T11:23:27.911Z,11.37
2022-12-22T11:26:10.279Z,12.80
2022-12-22T11:29:07.095Z,13.97
2022-12-22T11:31:49.567Z,12.10
2022-12-22T11:34:37.556Z,12.10
2022-12-22T11:37:24.483Z,18.33
2022-12-22T11:39:59.756Z,19.87
2022-12-22T11:42:46.646Z,18.67
2022-12-22T11:45:42.727Z,16.23
2022-12-22T11:48:26.999Z,15.83
2022-12-22T11:51:08.078Z,15.90
2022-12-22T11:54:16.828Z,13.50
2022-12-22T11:56:48.569Z,14.33
2022-12-22T11:59:37.663Z,15.03
2022-12-22T12:02:34.458Z,13.60
2022-12-22T12:05:21.964Z,12.37
2022-12-22T12:07:55.631Z,14.03
2022-12-22T12:10:28.206Z,14.47
2022-12-22T12:13:05.530Z,13.93
2022-12-22T12:15:55.715Z,12.30
2022-12-22T12:18:51.483Z,13.50
2022-12-22T12:21:47.532Z,13.03
2022-12-22T12:24:44.669Z,13.03
2022-12-22T12:27:32.956Z,13.63
2022-12-22T12:30:37.120Z,14.20
2022-12-22T12:32:59.493Z,13.57
2022-12-22T12:35:40.211Z,13.97
2022-12-22T12:38:39.528Z,13.03
2022-12-22T12:41:11.297Z,13.47
2022-12-22T12:43:43.299Z,13.53
2022-12-22T12:46:45.897Z,13.50
2022-12-22T12:49:51.655Z,13.60
2022-12-22T12:53:14.832Z,15.10
2022-12-22T12:56:03.748Z,13.97
2022-12-22T12:58:54.608Z,14.33
2022-12-22T13:01:58.715Z,15.80
2022-12-22T13:05:10.672Z,14.10
2022-12-22T13:08:14.428Z,13.93
2022-12-22T13:10:46.459Z,14.50
2022-12-22T13:13:53.550Z,14.37
2022-12-22T13:16:42.596Z,14.60
2022-12-22T13:19:24.417Z,15.43
2022-12-22T13:21:57.947Z,14.77
2022-12-22T13:24:32.135Z,13.57
2022-12-22T13:27:07.245Z,14.07
2022-12-22T13:29:45.566Z,16.70
2022-12-22T13:32:22.040Z,16.50
2022-12-22T13:35:29.803Z,15.87
2022-12-22T13:37:48.848Z,16.93
2022-12-22T13:40:22.439Z,17.17
2022-12-22T13:42:54.183Z,16.70
2022-12-22T13:45:30.479Z,15.97
2022-12-22T13:48:01.764Z,17.27
2022-12-22T13:50:34.723Z,16.70
2022-12-22T13:53:05.100Z,17.57
2022-12-22T13:55:36.508Z,16.87
2022-12-22T13:58:09.342Z,17.50
2022-12-22T14:00:38.159Z,16.97
2022-12-22T14:03:27.776Z,16.37
2022-12-22T14:06:03.685Z,16.03
2022-12-22T14:08:31.938Z,16.30
2022-12-22T14:11:01.650Z,16.20
2022-12-22T14:13:33.620Z,16.00
2022-12-22T14:16:03.140Z,17.03
2022-12-22T14:18:33.977Z,16.87
2022-12-22T14:21:03.001Z,17.70
2022-12-22T14:23:34.376Z,17.00
2022-12-22T14:26:07.211Z,17.73
2022-12-22T14:28:50.379Z,51.13
2022-12-22T14:31:19.569Z,55.03
2022-12-22T14:33:55.692Z,44.47
2022-12-22T14:36:26.011Z,43.50
2022-12-22T14:38:56.045Z,38.07
2022-12-22T14:41:44.361Z,31.83
2022-12-22T14:44:17.780Z,26.50
2022-12-22T14:46:49.833Z,22.83
2022-12-22T14:49:20.705Z,22.60
2022-12-22T14:52:01.031Z,19.27
2022-12-22T14:54:30.074Z,19.00
2022-12-22T14:57:10.102Z,17.37
2022-12-22T14:59:58.530Z,18.17
2022-12-22T15:02:36.657Z,17.77
2022-12-22T15:05:14.612Z,16.73
2022-12-22T15:08:05.264Z,17.80
2022-12-22T15:10:42.419Z,17.93
2022-12-22T15:13:20.077Z,18.13
2022-12-22T15:15:48.478Z,19.83
2022-12-22T15:18:17.057Z,19.10
2022-12-22T15:20:45.671Z,18.77
2022-12-22T15:23:17.318Z,18.97
2022-12-22T15:25:46.595Z,18.70
2022-12-22T15:28:16.387Z,18.77
2022-12-22T15:30:44.856Z,18.70
2022-12-22T15:33:14.789Z,19.83
2022-12-22T15:35:44.860Z,19.70
2022-12-22T15:38:15.423Z,19.80
2022-12-22T15:40:44.216Z,19.20
2022-12-22T15:43:36.723Z,20.13
2022-12-22T15:46:04.179Z,20.83
2022-12-22T15:48:35.711Z,22.93
2022-12-22T15:51:05.957Z,22.90
2022-12-22T15:53:36.051Z,22.43
2022-12-22T15:56:04.945Z,22.50
2022-12-22T15:58:36.641Z,22.50
2022-12-22T16:01:06.610Z,21.47
2022-12-22T16:03:35.133Z,29.20
2022-12-22T16:06:03.530Z,28.30
2022-12-22T16:08:34.345Z,26.13
2022-12-22T16:11:02.569Z,25.20
2022-12-22T16:13:31.104Z,24.37
2022-12-22T16:16:00.074Z,24.97
2022-12-22T16:18:30.047Z,24.60
2022-12-22T16:21:02.104Z,23.20
2022-12-22T16:23:30.793Z,24.60
2022-12-22T16:26:02.467Z,26.30
2022-12-22T16:28:33.197Z,27.27
2022-12-22T16:31:02.509Z,27.97
2022-12-22T16:33:32.284Z,29.67
2022-12-22T16:36:01.324Z,29.43
2022-12-22T16:38:29.696Z,31.23
2022-12-22T16:40:58.046Z,30.80
2022-12-22T16:43:49.886Z,32.77
2022-12-22T16:46:19.955Z,34.20
2022-12-22T16:48:51.871Z,33.70
2022-12-22T16:51:24.451Z,34.67
2022-12-22T16:53:53.024Z,37.67
2022-12-22T16:56:23.404Z,34.37
2022-12-22T16:58:51.678Z,33.73
2022-12-22T17:01:31.130Z,31.90
2022-12-22T17:04:05.424Z,31.40
2022-12-22T17:06:34.232Z,33.17
2022-12-22T17:09:04.352Z,33.80
2022-12-22T17:11:34.493Z,34.27
2022-12-22T17:14:08.050Z,33.87
2022-12-22T17:16:36.610Z,33.10
2022-12-22T17:19:07.544Z,30.60
2022-12-22T17:21:35.906Z,31.77
2022-12-22T17:24:04.789Z,31.50
2022-12-22T17:26:35.559Z,33.00
2022-12-22T17:29:04.116Z,30.27
2022-12-22T17:31:32.404Z,31.13
2022-12-22T17:34:00.679Z,31.63
2022-12-22T17:36:34.418Z,33.50
2022-12-22T17:39:03.689Z,39.23
2022-12-22T17:41:32.229Z,52.80
2022-12-22T17:44:00.548Z,57.07
2022-12-22T17:46:29.033Z,53.73
2022-12-22T17:48:57.472Z,48.03
2022-12-22T17:51:28.544Z,43.37
2022-12-22T17:53:59.514Z,45.30
2022-12-22T17:56:30.236Z,43.07
2022-12-22T17:58:58.770Z,44.27
2022-12-22T18:01:29.551Z,44.03
2022-12-22T18:03:59.040Z,40.97
2022-12-22T18:06:30.896Z,43.37
2022-12-22T18:09:01.240Z,41.93
2022-12-22T18:11:29.953Z,43.53
2022-12-22T18:14:01.088Z,45.40
2022-12-22T18:16:30.067Z,44.63
2022-12-22T18:18:58.428Z,41.67
2022-12-22T18:21:26.992Z,42.50
2022-12-22T18:23:55.438Z,43.30
2022-12-22T18:26:27.312Z,41.57
2022-12-22T18:28:56.207Z,41.37
2022-12-22T18:31:25.527Z,40.17
2022-12-22T18:33:54.415Z,38.73
2022-12-22T18:36:28.799Z,39.90
2022-12-22T18:38:58.371Z,39.10
2022-12-22T18:41:30.703Z,41.83
2022-12-22T18:43:59.067Z,41.43
2022-12-22T18:46:27.567Z,40.07
2022-12-22T18:49:00.509Z,39.80
2022-12-22T18:51:30.263Z,39.90
2022-12-22T18:53:58.802Z,37.87
2022-12-22T18:56:28.675Z,38.37
2022-12-22T18:58:57.049Z,38.43
2022-12-22T19:01:27.253Z,36.27
2022-12-22T19:03:58.986Z,34.77
2022-12-22T19:06:27.661Z,39.73
2022-12-22T19:08:55.936Z,38.93
2022-12-22T19:11:28.859Z,38.33
2022-12-22T19:13:57.304Z,37.53
2022-12-22T19:16:28.070Z,41.57
2022-12-22T19:18:57.975Z,39.00
2022-12-22T19:21:26.626Z,36.30
2022-12-22T19:23:55.038Z,35.87
2022-12-22T19:26:25.458Z,31.07
2022-12-22T19:28:57.299Z,29.10
2022-12-22T19:31:28.432Z,29.50
2022-12-22T19:33:59.078Z,30.43
2022-12-22T19:36:29.882Z,29.40
2022-12-22T19:39:05.626Z,30.80
2022-12-22T19:41:40.242Z,31.27
2022-12-22T19:44:19.848Z,28.80
2022-12-22T19:46:49.067Z,27.93
2022-12-22T19:49:18.888Z,27.07
2022-12-22T19:51:47.595Z,28.03
2022-12-22T19:54:16.760Z,26.47
2022-12-22T19:56:48.702Z,28.07
2022-12-22T19:59:28.157Z,28.63
2022-12-22T20:01:58.601Z,27.90
2022-12-22T20:04:27.267Z,27.23
2022-12-22T20:06:55.609Z,31.30
2022-12-22T20:09:23.967Z,32.87
2022-12-22T20:11:52.339Z,31.13
2022-12-22T20:14:22.036Z,33.03
2022-12-22T20:16:50.432Z,33.87
2022-12-22T20:19:18.724Z,35.27
2022-12-22T20:21:47.101Z,34.87
2022-12-22T20:24:22.774Z,32.23
2022-12-22T20:26:54.434Z,32.27
2022-12-22T20:29:25.975Z,31.97
2022-12-22T20:31:54.336Z,31.80
2022-12-22T20:34:22.855Z,30.07
2022-12-22T20:36:51.282Z,29.80
2022-12-22T20:39:20.692Z,30.37
2022-12-22T20:41:53.291Z,30.70
2022-12-22T20:44:28.321Z,30.67
2022-12-22T20:46:56.659Z,32.00
2022-12-22T20:49:24.931Z,34.27
2022-12-22T20:51:53.307Z,31.00
2022-12-22T20:54:21.786Z,29.30
2022-12-22T20:56:51.428Z,30.83
2022-12-22T20:59:22.369Z,30.70
2022-12-22T21:01:53.523Z,30.87
2022-12-22T21:04:22.371Z,31.70
2022-12-22T21:06:52.593Z,33.50
2022-12-22T21:09:24.392Z,33.20
2022-12-22T21:11:52.693Z,33.80
2022-12-22T21:14:21.010Z,35.27
2022-12-22T21:16:51.793Z,37.77
2022-12-22T21:19:20.565Z,38.03
2022-12-22T21:21:49.475Z,38.77
2022-12-22T21:24:18.820Z,37.83
2022-12-22T21:26:50.484Z,38.07
2022-12-22T21:29:23.048Z,35.90
2022-12-22T21:31:53.233Z,37.80
2022-12-22T21:34:22.067Z,36.87
2022-12-22T21:36:55.593Z,37.23
2022-12-22T21:39:30.410Z,36.50
2022-12-22T21:42:01.878Z,34.43
2022-12-22T21:44:30.879Z,36.73
2022-12-22T21:47:01.181Z,37.57
2022-12-22T21:49:31.644Z,41.47
2022-12-22T21:52:00.416Z,39.93
2022-12-22T21:54:29.674Z,41.03
2022-12-22T21:56:58.098Z,43.87
2022-12-22T21:59:27.263Z,47.07
2022-12-22T22:01:56.640Z,45.60
2022-12-22T22:04:27.526Z,46.90
2022-12-22T22:06:55.852Z,49.23
2022-12-22T22:09:24.125Z,48.00
2022-12-22T22:12:09.712Z,47.40
2022-12-22T22:14:38.070Z,49.10
2022-12-22T22:17:06.382Z,48.20
2022-12-22T22:19:36.321Z,51.93
2022-12-22T22:22:05.130Z,49.63
2022-12-22T22:24:33.776Z,47.53
2022-12-22T22:27:02.716Z,47.27
2022-12-22T22:29:31.044Z,44.63
2022-12-22T22:31:59.417Z,43.77
2022-12-22T22:34:27.767Z,43.57
2022-12-22T22:36:57.421Z,42.50
2022-12-22T22:39:26.007Z,40.73
2022-12-22T22:41:54.598Z,39.17
2022-12-22T22:44:23.516Z,37.10
2022-12-22T22:46:51.899Z,33.60
2022-12-22T22:49:26.230Z,30.17
2022-12-22T22:51:58.003Z,31.17
2022-12-22T22:54:26.733Z,31.63
2022-12-22T22:56:55.115Z,31.20
2022-12-22T22:59:23.556Z,31.90
2022-12-22T23:01:51.892Z,31.43
2022-12-22T23:04:20.405Z,29.63
2022-12-22T23:06:49.167Z,28.13
2022-12-22T23:09:19.139Z,25.83
2022-12-22T23:11:47.545Z,23.27
2022-12-22T23:14:15.860Z,21.63
2022-12-22T23:16:44.164Z,18.77
2022-12-22T23:19:12.622Z,21.33
2022-12-22T23:21:40.967Z,20.97
2022-12-22T23:24:10.141Z,20.07
2022-12-22T23:26:40.034Z,19.77
2022-12-22T23:29:08.466Z,19.23
2022-12-22T23:31:37.634Z,18.23
2022-12-22T23:34:06.396Z,19.57
2022-12-22T23:36:34.909Z,19.10
2022-12-22T23:39:03.201Z,19.47
2022-12-22T23:41:31.535Z,18.57
2022-12-22T23:44:01.224Z,19.27
2022-12-22T23:46:29.739Z,18.90
2022-12-22T23:48:59.425Z,19.37
2022-12-22T23:51:29.289Z,19.30
2022-12-22T23:53:59.258Z,16.87
2022-12-22T23:56:27.712Z,17.33
2022-12-22T23:58:56.104Z,16.97
